sensor_id;sensor_type;location;lat;lon;timestamp;temperature;humidity
22629;DHT22;11481;53.694;9.910;2023-06-22T00:00:05;22.50;99.90
22629;DHT22;11481;53.694;9.910;2023-06-22T00:02:37;22.40;99.90
22629;DHT22;11481;53.694;9.910;2023-06-22T00:05:04;22.10;99.90
22629;DHT22;11481;53.694;9.910;2023-06-22T00:07:31;22.00;99.90
22629;DHT22;11481;53.694;9.910;2023-06-22T00:09:58;22.20;99.90
22629;DHT22;11481;53.694;9.910;2023-06-22T00:12:25;22.00;99.90
22629;DHT22;11481;53.694;9.910;2023-06-22T00:14:52;22.20;99.90
22629;DHT22;11481;53.694;9.910;2023-06-22T00:17:19;22.10;99.90
22629;DHT22;11481;53.694;9.910;2023-06-22T00:19:49;22.10;99.90
22629;DHT22;11481;53.694;9.910;2023-06-22T00:22:20;21.90;99.90
22629;DHT22;11481;53.694;9.910;2023-06-22T00:24:55;21.80;99.90
22629;DHT22;11481;53.694;9.910;2023-06-22T00:27:22;21.70;99.90
22629;DHT22;11481;53.694;9.910;2023-06-22T00:29:49;21.60;99.90
22629;DHT22;11481;53.694;9.910;2023-06-22T00:32:16;21.50;99.90
22629;DHT22;11481;53.694;9.910;2023-06-22T00:34:44;21.40;99.90
22629;DHT22;11481;53.694;9.910;2023-06-22T00:37:10;21.20;99.90
22629;DHT22;11481;53.694;9.910;2023-06-22T00:39:38;21.10;99.90
22629;DHT22;11481;53.694;9.910;2023-06-22T00:42:05;21.10;99.90
22629;DHT22;11481;53.694;9.910;2023-06-22T00:44:31;21.10;99.90
22629;DHT22;11481;53.694;9.910;2023-06-22T00:46:58;21.10;99.90
22629;DHT22;11481;53.694;9.910;2023-06-22T00:49:26;21.20;99.90
22629;DHT22;11481;53.694;9.910;2023-06-22T00:51:53;21.20;99.90
22629;DHT22;11481;53.694;9.910;2023-06-22T00:54:20;21.40;99.90
22629;DHT22;11481;53.694;9.910;2023-06-22T00:56:53;21.20;99.90
22629;DHT22;11481;53.694;9.910;2023-06-22T00:59:22;21.20;99.90
22629;DHT22;11481;53.694;9.910;2023-06-22T01:01:49;20.90;99.90
22629;DHT22;11481;53.694;9.910;2023-06-22T01:04:16;20.60;99.90
22629;DHT22;11481;53.694;9.910;2023-06-22T01:10:08;20.30;99.90
22629;DHT22;11481;53.694;9.910;2023-06-22T01:12:42;20.30;99.90
22629;DHT22;11481;53.694;9.910;2023-06-22T01:15:23;20.30;99.90
22629;DHT22;11481;53.694;9.910;2023-06-22T01:17:52;20.40;99.90
22629;DHT22;11481;53.694;9.910;2023-06-22T01:20:21;20.50;99.90
22629;DHT22;11481;53.694;9.910;2023-06-22T01:29:05;21.00;99.90
22629;DHT22;11481;53.694;9.910;2023-06-22T01:31:34;21.00;99.90
22629;DHT22;11481;53.694;9.910;2023-06-22T01:34:05;20.80;99.90
22629;DHT22;11481;53.694;9.910;2023-06-22T01:36:33;20.40;99.90
22629;DHT22;11481;53.694;9.910;2023-06-22T01:39:02;20.10;99.90
22629;DHT22;11481;53.694;9.910;2023-06-22T01:41:33;20.10;99.90
22629;DHT22;11481;53.694;9.910;2023-06-22T01:44:01;20.10;99.90
22629;DHT22;11481;53.694;9.910;2023-06-22T01:46:29;20.30;99.90
22629;DHT22;11481;53.694;9.910;2023-06-22T01:48:56;20.40;99.90
22629;DHT22;11481;53.694;9.910;2023-06-22T01:51:23;20.60;99.90
22629;DHT22;11481;53.694;9.910;2023-06-22T01:53:50;20.60;99.90
22629;DHT22;11481;53.694;9.910;2023-06-22T01:56:17;20.60;99.90
22629;DHT22;11481;53.694;9.910;2023-06-22T01:59:00;20.40;99.90
22629;DHT22;11481;53.694;9.910;2023-06-22T02:01:44;20.40;99.90
22629;DHT22;11481;53.694;9.910;2023-06-22T02:04:20;20.30;99.90
22629;DHT22;11481;53.694;9.910;2023-06-22T02:07:05;20.20;99.90
22629;DHT22;11481;53.694;9.910;2023-06-22T02:09:38;20.00;99.90
22629;DHT22;11481;53.694;9.910;2023-06-22T02:12:07;19.90;99.90
22629;DHT22;11481;53.694;9.910;2023-06-22T02:14:35;19.80;99.90
22629;DHT22;11481;53.694;9.910;2023-06-22T02:17:03;20.00;99.90
22629;DHT22;11481;53.694;9.910;2023-06-22T02:19:38;20.00;99.90
22629;DHT22;11481;53.694;9.910;2023-06-22T02:22:07;20.20;99.90
22629;DHT22;11481;53.694;9.910;2023-06-22T02:24:34;20.20;99.90
22629;DHT22;11481;53.694;9.910;2023-06-22T02:27:02;20.10;99.90
22629;DHT22;11481;53.694;9.910;2023-06-22T02:29:29;19.90;99.90
22629;DHT22;11481;53.694;9.910;2023-06-22T02:31:56;19.80;99.90
22629;DHT22;11481;53.694;9.910;2023-06-22T02:34:23;19.90;99.90
22629;DHT22;11481;53.694;9.910;2023-06-22T02:36:50;20.00;99.90
22629;DHT22;11481;53.694;9.910;2023-06-22T02:39:23;20.00;99.90
22629;DHT22;11481;53.694;9.910;2023-06-22T02:41:52;19.90;99.90
22629;DHT22;11481;53.694;9.910;2023-06-22T02:44:19;19.70;99.90
22629;DHT22;11481;53.694;9.910;2023-06-22T02:46:47;19.50;99.90
22629;DHT22;11481;53.694;9.910;2023-06-22T02:49:14;19.30;99.90
22629;DHT22;11481;53.694;9.910;2023-06-22T02:51:45;19.30;99.90
22629;DHT22;11481;53.694;9.910;2023-06-22T02:54:12;19.40;99.90
22629;DHT22;11481;53.694;9.910;2023-06-22T02:56:39;19.50;99.90
22629;DHT22;11481;53.694;9.910;2023-06-22T02:59:07;19.60;99.90
22629;DHT22;11481;53.694;9.910;2023-06-22T03:01:34;19.50;99.90
22629;DHT22;11481;53.694;9.910;2023-06-22T03:04:07;19.40;99.90
22629;DHT22;11481;53.694;9.910;2023-06-22T03:06:35;19.20;99.90
22629;DHT22;11481;53.694;9.910;2023-06-22T03:09:05;19.10;99.90
22629;DHT22;11481;53.694;9.910;2023-06-22T03:11:33;19.10;99.90
22629;DHT22;11481;53.694;9.910;2023-06-22T03:14:00;19.10;99.90
22629;DHT22;11481;53.694;9.910;2023-06-22T03:16:28;19.20;99.90
22629;DHT22;11481;53.694;9.910;2023-06-22T03:18:55;19.20;99.90
22629;DHT22;11481;53.694;9.910;2023-06-22T03:21:23;19.30;99.90
22629;DHT22;11481;53.694;9.910;2023-06-22T03:23:50;19.40;99.90
22629;DHT22;11481;53.694;9.910;2023-06-22T03:26:18;19.40;99.90
22629;DHT22;11481;53.694;9.910;2023-06-22T03:28:45;19.40;99.90
22629;DHT22;11481;53.694;9.910;2023-06-22T03:31:11;19.40;99.90
22629;DHT22;11481;53.694;9.910;2023-06-22T03:33:38;19.30;99.90
22629;DHT22;11481;53.694;9.910;2023-06-22T03:36:05;19.30;99.90
22629;DHT22;11481;53.694;9.910;2023-06-22T03:38:32;19.40;99.90
22629;DHT22;11481;53.694;9.910;2023-06-22T03:40:59;19.40;99.90
22629;DHT22;11481;53.694;9.910;2023-06-22T03:43:26;19.50;99.90
22629;DHT22;11481;53.694;9.910;2023-06-22T03:45:52;19.50;99.90
22629;DHT22;11481;53.694;9.910;2023-06-22T03:48:19;19.50;99.90
22629;DHT22;11481;53.694;9.910;2023-06-22T03:50:53;19.50;99.90
22629;DHT22;11481;53.694;9.910;2023-06-22T03:53:34;19.60;99.90
22629;DHT22;11481;53.694;9.910;2023-06-22T03:56:01;19.60;99.90
22629;DHT22;11481;53.694;9.910;2023-06-22T03:58:28;19.70;99.90
22629;DHT22;11481;53.694;9.910;2023-06-22T04:00:59;19.80;99.90
22629;DHT22;11481;53.694;9.910;2023-06-22T04:03:26;19.40;99.90
22629;DHT22;11481;53.694;9.910;2023-06-22T04:05:53;19.30;99.90
22629;DHT22;11481;53.694;9.910;2023-06-22T04:08:20;19.40;99.90
22629;DHT22;11481;53.694;9.910;2023-06-22T04:10:47;19.30;99.90
22629;DHT22;11481;53.694;9.910;2023-06-22T04:13:15;19.20;99.90
22629;DHT22;11481;53.694;9.910;2023-06-22T04:15:42;19.30;99.90
22629;DHT22;11481;53.694;9.910;2023-06-22T04:18:09;19.40;99.90
22629;DHT22;11481;53.694;9.910;2023-06-22T04:20:36;19.50;99.90
22629;DHT22;11481;53.694;9.910;2023-06-22T04:23:03;19.70;99.90
22629;DHT22;11481;53.694;9.910;2023-06-22T04:25:30;19.50;99.90
22629;DHT22;11481;53.694;9.910;2023-06-22T04:27:57;19.50;99.90
22629;DHT22;11481;53.694;9.910;2023-06-22T04:30:24;19.40;99.90
22629;DHT22;11481;53.694;9.910;2023-06-22T04:32:52;19.40;99.90
22629;DHT22;11481;53.694;9.910;2023-06-22T04:35:26;19.40;99.90
22629;DHT22;11481;53.694;9.910;2023-06-22T04:37:53;19.40;99.90
22629;DHT22;11481;53.694;9.910;2023-06-22T04:40:25;19.40;99.90
22629;DHT22;11481;53.694;9.910;2023-06-22T04:42:53;19.60;99.90
22629;DHT22;11481;53.694;9.910;2023-06-22T04:45:20;19.70;99.90
22629;DHT22;11481;53.694;9.910;2023-06-22T04:47:48;19.90;99.90
22629;DHT22;11481;53.694;9.910;2023-06-22T04:50:15;19.90;99.90
22629;DHT22;11481;53.694;9.910;2023-06-22T04:52:41;19.90;99.90
22629;DHT22;11481;53.694;9.910;2023-06-22T04:55:08;20.00;99.90
22629;DHT22;11481;53.694;9.910;2023-06-22T04:57:35;20.20;99.90
22629;DHT22;11481;53.694;9.910;2023-06-22T05:00:03;20.10;99.90
22629;DHT22;11481;53.694;9.910;2023-06-22T05:02:46;20.10;99.90
22629;DHT22;11481;53.694;9.910;2023-06-22T05:05:14;20.20;99.90
22629;DHT22;11481;53.694;9.910;2023-06-22T05:07:45;20.20;99.90
22629;DHT22;11481;53.694;9.910;2023-06-22T05:10:16;20.20;99.90
22629;DHT22;11481;53.694;9.910;2023-06-22T05:12:43;20.30;99.90
22629;DHT22;11481;53.694;9.910;2023-06-22T05:15:10;20.30;99.90
22629;DHT22;11481;53.694;9.910;2023-06-22T05:17:37;20.80;99.90
22629;DHT22;11481;53.694;9.910;2023-06-22T05:20:10;20.90;99.90
22629;DHT22;11481;53.694;9.910;2023-06-22T05:22:38;21.00;99.90
22629;DHT22;11481;53.694;9.910;2023-06-22T05:25:07;21.20;99.90
22629;DHT22;11481;53.694;9.910;2023-06-22T05:27:36;21.30;99.90
22629;DHT22;11481;53.694;9.910;2023-06-22T05:30:07;21.30;99.90
22629;DHT22;11481;53.694;9.910;2023-06-22T05:32:36;21.40;99.90
22629;DHT22;11481;53.694;9.910;2023-06-22T05:35:04;21.50;99.90
22629;DHT22;11481;53.694;9.910;2023-06-22T05:37:30;21.60;99.90
22629;DHT22;11481;53.694;9.910;2023-06-22T05:39:57;21.50;99.90
22629;DHT22;11481;53.694;9.910;2023-06-22T05:42:24;21.20;99.90
22629;DHT22;11481;53.694;9.910;2023-06-22T05:44:52;21.10;99.90
22629;DHT22;11481;53.694;9.910;2023-06-22T05:47:21;21.40;99.90
22629;DHT22;11481;53.694;9.910;2023-06-22T05:49:51;21.40;99.90
22629;DHT22;11481;53.694;9.910;2023-06-22T05:52:19;21.50;99.90
22629;DHT22;11481;53.694;9.910;2023-06-22T05:54:47;21.30;99.90
22629;DHT22;11481;53.694;9.910;2023-06-22T05:57:13;21.30;99.90
22629;DHT22;11481;53.694;9.910;2023-06-22T05:59:40;21.30;99.90
22629;DHT22;11481;53.694;9.910;2023-06-22T06:02:09;21.40;99.90
22629;DHT22;11481;53.694;9.910;2023-06-22T06:04:36;21.40;99.90
22629;DHT22;11481;53.694;9.910;2023-06-22T06:07:02;21.30;99.90
22629;DHT22;11481;53.694;9.910;2023-06-22T06:09:29;21.40;99.90
22629;DHT22;11481;53.694;9.910;2023-06-22T06:11:56;21.30;99.90
22629;DHT22;11481;53.694;9.910;2023-06-22T06:14:23;21.30;99.90
22629;DHT22;11481;53.694;9.910;2023-06-22T06:16:49;21.30;99.90
22629;DHT22;11481;53.694;9.910;2023-06-22T06:19:16;21.40;99.90
22629;DHT22;11481;53.694;9.910;2023-06-22T06:21:43;21.50;99.90
22629;DHT22;11481;53.694;9.910;2023-06-22T06:24:12;21.70;99.90
22629;DHT22;11481;53.694;9.910;2023-06-22T06:26:38;21.80;99.90
22629;DHT22;11481;53.694;9.910;2023-06-22T06:29:11;22.00;99.90
22629;DHT22;11481;53.694;9.910;2023-06-22T06:31:38;21.90;99.90
22629;DHT22;11481;53.694;9.910;2023-06-22T06:34:06;22.00;99.90
22629;DHT22;11481;53.694;9.910;2023-06-22T06:36:33;22.00;99.90
22629;DHT22;11481;53.694;9.910;2023-06-22T06:39:00;22.00;99.90
22629;DHT22;11481;53.694;9.910;2023-06-22T06:41:26;22.00;99.90
22629;DHT22;11481;53.694;9.910;2023-06-22T06:43:56;22.00;99.90
22629;DHT22;11481;53.694;9.910;2023-06-22T06:46:23;22.10;99.90
22629;DHT22;11481;53.694;9.910;2023-06-22T06:48:49;22.20;99.90
22629;DHT22;11481;53.694;9.910;2023-06-22T06:51:16;22.30;99.90
22629;DHT22;11481;53.694;9.910;2023-06-22T06:53:43;22.40;99.90
22629;DHT22;11481;53.694;9.910;2023-06-22T06:56:09;22.40;99.90
22629;DHT22;11481;53.694;9.910;2023-06-22T06:58:41;22.40;99.90
22629;DHT22;11481;53.694;9.910;2023-06-22T07:01:12;22.40;99.90
22629;DHT22;11481;53.694;9.910;2023-06-22T07:03:39;22.30;99.90
22629;DHT22;11481;53.694;9.910;2023-06-22T07:06:05;22.40;99.90
22629;DHT22;11481;53.694;9.910;2023-06-22T07:08:32;22.30;99.90
22629;DHT22;11481;53.694;9.910;2023-06-22T07:10:59;22.50;99.90
22629;DHT22;11481;53.694;9.910;2023-06-22T07:13:28;22.70;99.90
22629;DHT22;11481;53.694;9.910;2023-06-22T07:15:55;22.80;99.90
22629;DHT22;11481;53.694;9.910;2023-06-22T07:18:21;23.00;99.90
22629;DHT22;11481;53.694;9.910;2023-06-22T07:20:48;23.20;99.90
22629;DHT22;11481;53.694;9.910;2023-06-22T07:23:15;23.30;99.90
22629;DHT22;11481;53.694;9.910;2023-06-22T07:25:42;23.30;99.90
22629;DHT22;11481;53.694;9.910;2023-06-22T07:28:09;23.40;99.90
22629;DHT22;11481;53.694;9.910;2023-06-22T07:30:35;23.50;99.90
22629;DHT22;11481;53.694;9.910;2023-06-22T07:33:02;23.60;99.90
22629;DHT22;11481;53.694;9.910;2023-06-22T07:35:31;23.70;99.90
22629;DHT22;11481;53.694;9.910;2023-06-22T07:37:57;23.80;99.90
22629;DHT22;11481;53.694;9.910;2023-06-22T07:40:31;23.90;99.90
22629;DHT22;11481;53.694;9.910;2023-06-22T07:43:00;24.00;99.90
22629;DHT22;11481;53.694;9.910;2023-06-22T07:45:26;23.90;99.90
22629;DHT22;11481;53.694;9.910;2023-06-22T07:47:53;23.80;99.90
22629;DHT22;11481;53.694;9.910;2023-06-22T07:50:20;23.80;99.90
22629;DHT22;11481;53.694;9.910;2023-06-22T07:52:48;23.90;99.90
22629;DHT22;11481;53.694;9.910;2023-06-22T07:55:15;24.00;99.90
22629;DHT22;11481;53.694;9.910;2023-06-22T07:57:41;24.10;99.90
22629;DHT22;11481;53.694;9.910;2023-06-22T08:00:09;24.10;99.90
22629;DHT22;11481;53.694;9.910;2023-06-22T08:02:45;24.00;99.90
22629;DHT22;11481;53.694;9.910;2023-06-22T08:05:14;24.00;99.90
22629;DHT22;11481;53.694;9.910;2023-06-22T08:07:49;24.10;99.90
22629;DHT22;11481;53.694;9.910;2023-06-22T08:10:15;24.20;99.90
22629;DHT22;11481;53.694;9.910;2023-06-22T08:12:43;24.30;99.90
22629;DHT22;11481;53.694;9.910;2023-06-22T08:15:10;24.30;99.90
22629;DHT22;11481;53.694;9.910;2023-06-22T08:17:38;24.40;99.90
22629;DHT22;11481;53.694;9.910;2023-06-22T08:20:06;24.50;99.90
22629;DHT22;11481;53.694;9.910;2023-06-22T08:22:40;24.60;99.90
22629;DHT22;11481;53.694;9.910;2023-06-22T08:25:07;24.60;99.90
22629;DHT22;11481;53.694;9.910;2023-06-22T08:27:35;24.60;99.90
22629;DHT22;11481;53.694;9.910;2023-06-22T08:30:02;24.60;99.90
22629;DHT22;11481;53.694;9.910;2023-06-22T08:32:29;24.60;99.90
22629;DHT22;11481;53.694;9.910;2023-06-22T08:34:57;24.70;99.90
22629;DHT22;11481;53.694;9.910;2023-06-22T08:37:28;24.80;99.90
22629;DHT22;11481;53.694;9.910;2023-06-22T08:40:07;24.80;99.90
22629;DHT22;11481;53.694;9.910;2023-06-22T08:42:39;25.00;99.90
22629;DHT22;11481;53.694;9.910;2023-06-22T08:45:07;25.10;99.90
22629;DHT22;11481;53.694;9.910;2023-06-22T08:47:34;25.10;99.90
22629;DHT22;11481;53.694;9.910;2023-06-22T08:50:01;25.10;99.90
22629;DHT22;11481;53.694;9.910;2023-06-22T08:52:30;25.20;99.90
22629;DHT22;11481;53.694;9.910;2023-06-22T08:54:59;25.30;99.90
22629;DHT22;11481;53.694;9.910;2023-06-22T08:57:28;25.40;99.90
22629;DHT22;11481;53.694;9.910;2023-06-22T08:59:54;25.40;99.90
22629;DHT22;11481;53.694;9.910;2023-06-22T09:02:25;25.50;99.90
22629;DHT22;11481;53.694;9.910;2023-06-22T09:04:52;25.50;99.90
22629;DHT22;11481;53.694;9.910;2023-06-22T09:07:22;25.60;99.90
22629;DHT22;11481;53.694;9.910;2023-06-22T09:09:50;25.70;99.90
22629;DHT22;11481;53.694;9.910;2023-06-22T09:12:18;25.80;99.90
22629;DHT22;11481;53.694;9.910;2023-06-22T09:14:46;25.90;99.90
22629;DHT22;11481;53.694;9.910;2023-06-22T09:17:13;26.00;99.90
22629;DHT22;11481;53.694;9.910;2023-06-22T09:19:42;26.10;99.90
22629;DHT22;11481;53.694;9.910;2023-06-22T09:22:09;26.20;99.90
22629;DHT22;11481;53.694;9.910;2023-06-22T09:24:40;26.30;99.90
22629;DHT22;11481;53.694;9.910;2023-06-22T09:27:08;26.30;99.90
22629;DHT22;11481;53.694;9.910;2023-06-22T09:29:35;26.20;99.90
22629;DHT22;11481;53.694;9.910;2023-06-22T09:32:01;26.40;99.90
22629;DHT22;11481;53.694;9.910;2023-06-22T09:34:29;26.50;99.90
22629;DHT22;11481;53.694;9.910;2023-06-22T09:36:57;26.70;99.90
22629;DHT22;11481;53.694;9.910;2023-06-22T09:39:27;26.80;99.90
22629;DHT22;11481;53.694;9.910;2023-06-22T09:41:58;27.00;99.90
22629;DHT22;11481;53.694;9.910;2023-06-22T09:44:25;27.00;99.90
22629;DHT22;11481;53.694;9.910;2023-06-22T09:46:52;27.00;99.90
22629;DHT22;11481;53.694;9.910;2023-06-22T09:49:19;27.00;99.90
22629;DHT22;11481;53.694;9.910;2023-06-22T09:52:06;27.10;99.90
22629;DHT22;11481;53.694;9.910;2023-06-22T09:54:33;27.10;99.90
22629;DHT22;11481;53.694;9.910;2023-06-22T09:57:01;27.00;99.90
22629;DHT22;11481;53.694;9.910;2023-06-22T09:59:30;27.10;99.90
22629;DHT22;11481;53.694;9.910;2023-06-22T10:01:57;26.90;99.90
22629;DHT22;11481;53.694;9.910;2023-06-22T10:04:24;27.00;99.90
22629;DHT22;11481;53.694;9.910;2023-06-22T10:06:52;27.00;99.90
22629;DHT22;11481;53.694;9.910;2023-06-22T10:09:19;27.00;99.90
22629;DHT22;11481;53.694;9.910;2023-06-22T10:11:47;26.90;99.90
22629;DHT22;11481;53.694;9.910;2023-06-22T10:14:14;26.90;99.90
22629;DHT22;11481;53.694;9.910;2023-06-22T10:16:40;26.90;99.90
22629;DHT22;11481;53.694;9.910;2023-06-22T10:19:09;27.00;99.90
22629;DHT22;11481;53.694;9.910;2023-06-22T10:21:36;26.80;99.90
22629;DHT22;11481;53.694;9.910;2023-06-22T10:24:04;26.70;99.90
22629;DHT22;11481;53.694;9.910;2023-06-22T10:26:34;26.80;99.90
22629;DHT22;11481;53.694;9.910;2023-06-22T10:29:04;27.10;99.90
22629;DHT22;11481;53.694;9.910;2023-06-22T10:31:33;27.30;99.90
22629;DHT22;11481;53.694;9.910;2023-06-22T10:34:00;27.60;99.90
22629;DHT22;11481;53.694;9.910;2023-06-22T10:36:28;27.80;99.90
22629;DHT22;11481;53.694;9.910;2023-06-22T10:38:55;28.10;99.90
22629;DHT22;11481;53.694;9.910;2023-06-22T10:41:22;28.20;99.90
22629;DHT22;11481;53.694;9.910;2023-06-22T10:43:50;28.20;99.90
22629;DHT22;11481;53.694;9.910;2023-06-22T10:46:17;28.20;99.90
22629;DHT22;11481;53.694;9.910;2023-06-22T10:48:46;28.30;99.90
22629;DHT22;11481;53.694;9.910;2023-06-22T10:51:13;28.50;99.90
22629;DHT22;11481;53.694;9.910;2023-06-22T10:53:40;28.60;99.90
22629;DHT22;11481;53.694;9.910;2023-06-22T10:56:07;28.70;99.90
22629;DHT22;11481;53.694;9.910;2023-06-22T10:58:34;28.90;99.90
22629;DHT22;11481;53.694;9.910;2023-06-22T11:01:00;28.90;99.90
22629;DHT22;11481;53.694;9.910;2023-06-22T11:03:27;29.00;99.90
22629;DHT22;11481;53.694;9.910;2023-06-22T11:05:54;29.00;99.90
22629;DHT22;11481;53.694;9.910;2023-06-22T11:08:21;28.80;99.90
22629;DHT22;11481;53.694;9.910;2023-06-22T11:10:47;28.70;99.90
22629;DHT22;11481;53.694;9.910;2023-06-22T11:13:14;28.60;99.90
22629;DHT22;11481;53.694;9.910;2023-06-22T11:15:41;28.80;99.90
22629;DHT22;11481;53.694;9.910;2023-06-22T11:18:08;29.00;99.90
22629;DHT22;11481;53.694;9.910;2023-06-22T11:20:35;28.90;99.90
22629;DHT22;11481;53.694;9.910;2023-06-22T11:23:05;28.90;99.90
22629;DHT22;11481;53.694;9.910;2023-06-22T11:25:35;28.50;99.90
22629;DHT22;11481;53.694;9.910;2023-06-22T11:28:06;28.40;99.90
22629;DHT22;11481;53.694;9.910;2023-06-22T11:30:33;28.20;99.90
22629;DHT22;11481;53.694;9.910;2023-06-22T11:33:00;28.40;99.90
22629;DHT22;11481;53.694;9.910;2023-06-22T11:35:27;28.60;99.90
22629;DHT22;11481;53.694;9.910;2023-06-22T11:37:54;28.90;99.90
22629;DHT22;11481;53.694;9.910;2023-06-22T11:40:22;29.20;99.90
22629;DHT22;11481;53.694;9.910;2023-06-22T11:42:49;29.50;99.90
22629;DHT22;11481;53.694;9.910;2023-06-22T11:45:17;29.90;99.90
22629;DHT22;11481;53.694;9.910;2023-06-22T11:47:44;30.10;99.90
22629;DHT22;11481;53.694;9.910;2023-06-22T11:50:11;30.30;99.90
22629;DHT22;11481;53.694;9.910;2023-06-22T11:52:37;30.40;99.90
22629;DHT22;11481;53.694;9.910;2023-06-22T11:55:05;30.30;99.90
22629;DHT22;11481;53.694;9.910;2023-06-22T11:57:34;30.30;99.90
22629;DHT22;11481;53.694;9.910;2023-06-22T12:00:04;30.40;99.90
22629;DHT22;11481;53.694;9.910;2023-06-22T12:03:11;30.10;99.90
22629;DHT22;11481;53.694;9.910;2023-06-22T12:05:39;30.20;99.90
22629;DHT22;11481;53.694;9.910;2023-06-22T12:08:06;30.40;99.90
22629;DHT22;11481;53.694;9.910;2023-06-22T12:10:35;30.60;99.90
22629;DHT22;11481;53.694;9.910;2023-06-22T12:13:02;30.90;99.90
22629;DHT22;11481;53.694;9.910;2023-06-22T12:15:29;30.90;99.90
22629;DHT22;11481;53.694;9.910;2023-06-22T12:17:56;31.00;99.90
22629;DHT22;11481;53.694;9.910;2023-06-22T12:20:22;31.00;99.90
22629;DHT22;11481;53.694;9.910;2023-06-22T12:22:51;31.00;99.90
22629;DHT22;11481;53.694;9.910;2023-06-22T12:25:19;31.10;99.90
22629;DHT22;11481;53.694;9.910;2023-06-22T12:27:47;31.10;99.90
22629;DHT22;11481;53.694;9.910;2023-06-22T12:30:15;31.00;99.90
22629;DHT22;11481;53.694;9.910;2023-06-22T12:32:42;29.90;99.90
22629;DHT22;11481;53.694;9.910;2023-06-22T12:35:09;29.00;99.90
22629;DHT22;11481;53.694;9.910;2023-06-22T12:37:41;29.30;99.90
22629;DHT22;11481;53.694;9.910;2023-06-22T12:40:09;29.80;99.90
22629;DHT22;11481;53.694;9.910;2023-06-22T12:42:36;30.20;99.90
22629;DHT22;11481;53.694;9.910;2023-06-22T12:45:05;30.40;99.90
22629;DHT22;11481;53.694;9.910;2023-06-22T12:47:32;30.10;99.90
22629;DHT22;11481;53.694;9.910;2023-06-22T12:50:03;30.20;99.90
22629;DHT22;11481;53.694;9.910;2023-06-22T12:52:30;30.30;99.90
22629;DHT22;11481;53.694;9.910;2023-06-22T12:55:00;30.50;99.90
22629;DHT22;11481;53.694;9.910;2023-06-22T12:57:27;30.60;99.90
22629;DHT22;11481;53.694;9.910;2023-06-22T12:59:54;30.90;99.90
22629;DHT22;11481;53.694;9.910;2023-06-22T13:02:22;31.00;99.90
22629;DHT22;11481;53.694;9.910;2023-06-22T13:04:49;31.10;99.90
22629;DHT22;11481;53.694;9.910;2023-06-22T13:07:17;31.30;99.90
22629;DHT22;11481;53.694;9.910;2023-06-22T13:10:08;31.10;99.90
22629;DHT22;11481;53.694;9.910;2023-06-22T13:12:35;30.40;99.90
22629;DHT22;11481;53.694;9.910;2023-06-22T13:15:01;30.20;99.90
22629;DHT22;11481;53.694;9.910;2023-06-22T13:17:32;30.30;99.90
22629;DHT22;11481;53.694;9.910;2023-06-22T13:19:59;30.40;99.90
22629;DHT22;11481;53.694;9.910;2023-06-22T13:22:35;30.40;99.90
22629;DHT22;11481;53.694;9.910;2023-06-22T13:25:07;30.40;99.90
22629;DHT22;11481;53.694;9.910;2023-06-22T13:27:36;30.30;99.90
22629;DHT22;11481;53.694;9.910;2023-06-22T13:30:05;30.20;99.90
22629;DHT22;11481;53.694;9.910;2023-06-22T13:32:32;30.10;99.90
22629;DHT22;11481;53.694;9.910;2023-06-22T13:35:01;30.40;99.90
22629;DHT22;11481;53.694;9.910;2023-06-22T13:37:28;30.50;99.90
22629;DHT22;11481;53.694;9.910;2023-06-22T13:39:54;30.80;99.90
22629;DHT22;11481;53.694;9.910;2023-06-22T13:42:24;31.20;99.90
22629;DHT22;11481;53.694;9.910;2023-06-22T13:44:52;31.20;99.90
22629;DHT22;11481;53.694;9.910;2023-06-22T13:47:19;31.20;99.90
22629;DHT22;11481;53.694;9.910;2023-06-22T13:49:46;31.20;99.90
22629;DHT22;11481;53.694;9.910;2023-06-22T13:52:14;31.20;99.90
22629;DHT22;11481;53.694;9.910;2023-06-22T13:54:41;31.20;99.90
22629;DHT22;11481;53.694;9.910;2023-06-22T13:57:08;31.20;99.90
22629;DHT22;11481;53.694;9.910;2023-06-22T13:59:38;30.30;99.90
22629;DHT22;11481;53.694;9.910;2023-06-22T14:02:07;29.70;99.90
22629;DHT22;11481;53.694;9.910;2023-06-22T14:04:36;29.80;99.90
22629;DHT22;11481;53.694;9.910;2023-06-22T14:07:03;30.00;99.90
22629;DHT22;11481;53.694;9.910;2023-06-22T14:09:29;30.40;99.90
22629;DHT22;11481;53.694;9.910;2023-06-22T14:11:56;30.70;99.90
22629;DHT22;11481;53.694;9.910;2023-06-22T14:14:23;30.90;99.90
22629;DHT22;11481;53.694;9.910;2023-06-22T14:16:49;31.10;99.90
22629;DHT22;11481;53.694;9.910;2023-06-22T14:19:19;31.00;99.90
22629;DHT22;11481;53.694;9.910;2023-06-22T14:21:46;31.10;99.90
22629;DHT22;11481;53.694;9.910;2023-06-22T14:24:13;31.30;99.90
22629;DHT22;11481;53.694;9.910;2023-06-22T14:26:41;31.40;99.90
22629;DHT22;11481;53.694;9.910;2023-06-22T14:29:08;31.60;99.90
22629;DHT22;11481;53.694;9.910;2023-06-22T14:31:37;31.60;99.90
22629;DHT22;11481;53.694;9.910;2023-06-22T14:34:05;31.50;99.90
22629;DHT22;11481;53.694;9.910;2023-06-22T14:36:32;31.50;99.90
22629;DHT22;11481;53.694;9.910;2023-06-22T14:39:03;31.50;99.90
22629;DHT22;11481;53.694;9.910;2023-06-22T14:41:32;31.70;99.90
22629;DHT22;11481;53.694;9.910;2023-06-22T14:44:02;31.70;99.90
22629;DHT22;11481;53.694;9.910;2023-06-22T14:46:29;31.70;99.90
22629;DHT22;11481;53.694;9.910;2023-06-22T14:48:56;31.60;99.90
22629;DHT22;11481;53.694;9.910;2023-06-22T14:51:22;31.50;99.90
22629;DHT22;11481;53.694;9.910;2023-06-22T14:53:50;31.50;99.90
22629;DHT22;11481;53.694;9.910;2023-06-22T14:56:17;31.50;99.90
22629;DHT22;11481;53.694;9.910;2023-06-22T14:58:44;31.50;99.90
22629;DHT22;11481;53.694;9.910;2023-06-22T15:01:15;31.30;99.90
22629;DHT22;11481;53.694;9.910;2023-06-22T15:03:43;31.20;99.90
22629;DHT22;11481;53.694;9.910;2023-06-22T15:06:10;31.20;99.90
22629;DHT22;11481;53.694;9.910;2023-06-22T15:08:40;31.10;99.90
22629;DHT22;11481;53.694;9.910;2023-06-22T15:11:07;31.10;99.90
22629;DHT22;11481;53.694;9.910;2023-06-22T15:13:35;31.10;99.90
22629;DHT22;11481;53.694;9.910;2023-06-22T15:16:02;31.10;99.90
22629;DHT22;11481;53.694;9.910;2023-06-22T15:18:32;31.10;99.90
22629;DHT22;11481;53.694;9.910;2023-06-22T15:21:02;31.20;99.90
22629;DHT22;11481;53.694;9.910;2023-06-22T15:23:31;31.20;99.90
22629;DHT22;11481;53.694;9.910;2023-06-22T15:26:00;31.30;99.90
22629;DHT22;11481;53.694;9.910;2023-06-22T15:28:28;31.20;99.90
22629;DHT22;11481;53.694;9.910;2023-06-22T15:30:55;31.00;99.90
22629;DHT22;11481;53.694;9.910;2023-06-22T15:33:24;31.00;99.90
22629;DHT22;11481;53.694;9.910;2023-06-22T15:35:53;30.90;99.90
22629;DHT22;11481;53.694;9.910;2023-06-22T15:38:22;30.70;99.90
22629;DHT22;11481;53.694;9.910;2023-06-22T15:40:49;30.50;99.90
22629;DHT22;11481;53.694;9.910;2023-06-22T15:43:16;30.40;99.90
22629;DHT22;11481;53.694;9.910;2023-06-22T15:45:42;30.20;99.90